LiveATC.Net - Listen to live air traffic control over the Internet!


ICAO: KRNH  IATA: RNH   Airport: New Richmond Regional Airport
City: New Richmond   State/Province: Wisconsin
Country: United States   Continent: North America
KRNH METAR Weather: KRNH 291815Z AUTO 29012KT 10SM SCT023 BKN046 OVC050 15/09 A2980 RMK AO2 T01460089
KRNH Flight Activity (FlightAware)
KRNH Airport Info   (AirNav) (iFlightPlanner)
KRNH VFR Sectional Chart   (iFlightPlanner) 
KRNH IFR Low Chart   (iFlightPlanner) 
KRNH CTAF/Clearance
Feed Status: DOWN
Last heard on: 2017-05-27 13:43:04 (2 days 5 hours 13 minutes ago)
KRNH CTAF/Clearance Audio Archives
FacilityFrequency
New Richmond Clearance Delivery (via Minneapolis Approach)121.725
New Richmond CTAF/UNICOM122.975


NOTICE

Unauthorized use prohibited. See LiveATC.net Terms of Service


Find LiveATC Audio Streams


Airport/ARTCC Code

Frequency Search
(e.g., 124.400, 128.75)
Site-wide search
 


Browse LiveATC Feeds
LiveATC Coverage Map
Top 50 LiveATC Feeds
Bad Weather Areas

LiveATC FAQ
Offer a LiveATC Feed
Contact LiveATC.net
Press Inquiries

LiveATC on iPhone
LiveATC on Android

Windows Phone
Windows 8/10

LiveATC Mobile
(Mobile browser)

ATC Audio Archives
Interesting Recordings

LiveATC Forums


Home Page
About LiveATC.net
Make a Donation
LiveATC Store

Terms of Use
Privacy Policy

Canadian Air Freqs

AIRMETs/SIGMETs

FAA Airport Status
Nat'l Airspace Status
Arrival Demand Charts


Server Software By:
Icecast.org
Liquidsoap